createdAt,value
2024-03-05T00:01:18.179Z,34.77
2024-03-05T00:04:20.894Z,29.27
2024-03-05T00:07:24.559Z,30.33
2024-03-05T00:10:43.586Z,35.22
2024-03-05T00:13:50.782Z,29.00
2024-03-05T00:16:59.858Z,33.83
2024-03-05T00:20:02.451Z,32.23
2024-03-05T00:23:07.433Z,31.60
2024-03-05T00:26:31.319Z,35.13
2024-03-05T00:29:33.998Z,29.13
2024-03-05T00:32:40.768Z,31.63
2024-03-05T00:35:43.618Z,31.57
2024-03-05T00:38:52.160Z,40.15
2024-03-05T00:42:10.929Z,30.20
2024-03-05T00:45:25.368Z,32.35
2024-03-05T00:48:31.496Z,36.37
2024-03-05T00:52:00.906Z,34.87
2024-03-05T00:55:11.316Z,38.00
2024-03-05T00:58:23.279Z,36.08
2024-03-05T01:01:38.555Z,36.75
2024-03-05T01:04:51.860Z,37.40
2024-03-05T01:08:00.040Z,33.97
2024-03-05T01:11:05.602Z,38.05
2024-03-05T01:14:13.088Z,37.40
2024-03-05T01:17:16.099Z,36.13
2024-03-05T01:20:22.819Z,38.10
2024-03-05T01:23:35.756Z,41.20
2024-03-05T01:26:44.660Z,36.67
2024-03-05T01:29:51.593Z,36.53
2024-03-05T01:33:03.209Z,35.58
2024-03-05T01:36:18.618Z,39.33
2024-03-05T01:39:38.362Z,36.97
2024-03-05T01:42:44.195Z,39.55
2024-03-05T01:45:52.703Z,39.75
2024-03-05T01:49:02.446Z,41.45
2024-03-05T01:52:10.705Z,38.13
2024-03-05T01:55:16.785Z,40.07
2024-03-05T01:58:23.088Z,39.35
2024-03-05T02:01:35.789Z,35.95
2024-03-05T02:04:47.795Z,41.28
2024-03-05T02:07:58.004Z,43.77
2024-03-05T02:11:04.616Z,45.27
2024-03-05T02:14:34.917Z,49.75
2024-03-05T02:18:02.834Z,38.15
2024-03-05T02:21:32.928Z,36.20
2024-03-05T02:24:39.783Z,41.13
2024-03-05T02:27:43.569Z,37.57
2024-03-05T02:30:47.369Z,36.33
2024-03-05T02:33:50.420Z,38.63
2024-03-05T02:36:53.101Z,42.28
2024-03-05T02:39:56.278Z,40.27
2024-03-05T02:43:00.168Z,38.33
2024-03-05T02:46:02.380Z,35.15
2024-03-05T02:49:05.866Z,42.10
2024-03-05T02:52:08.531Z,42.17
2024-03-05T02:55:11.525Z,45.73
2024-03-05T02:58:14.305Z,41.10
2024-03-05T03:01:16.682Z,40.30
2024-03-05T03:04:18.922Z,39.75
2024-03-05T03:07:21.385Z,36.33
2024-03-05T03:10:24.284Z,36.30
2024-03-05T03:13:26.702Z,33.13
2024-03-05T03:16:29.686Z,35.72
2024-03-05T03:19:33.308Z,36.70
2024-03-05T03:22:36.968Z,33.50
2024-03-05T03:25:42.194Z,33.03
2024-03-05T03:28:45.464Z,30.37
2024-03-05T03:31:48.343Z,33.40
2024-03-05T03:34:52.236Z,32.72
2024-03-05T03:37:54.872Z,31.58
2024-03-05T03:40:57.667Z,33.03
2024-03-05T03:44:01.106Z,34.93
2024-03-05T03:47:03.701Z,38.63
2024-03-05T03:50:06.341Z,32.63
2024-03-05T03:53:08.973Z,36.50
2024-03-05T03:56:11.363Z,39.80
2024-03-05T03:59:20.160Z,33.37
2024-03-05T04:02:23.142Z,34.45
2024-03-05T04:05:31.850Z,33.22
2024-03-05T04:08:35.114Z,33.97
2024-03-05T04:11:42.906Z,34.30
2024-03-05T04:14:45.762Z,34.40
2024-03-05T04:17:50.373Z,39.45
2024-03-05T04:20:57.042Z,38.20
2024-03-05T04:23:59.910Z,34.15
2024-03-05T04:27:04.818Z,29.67
2024-03-05T04:30:12.086Z,28.57
2024-03-05T04:33:31.872Z,29.73
2024-03-05T04:36:39.335Z,31.60
2024-03-05T04:39:48.336Z,28.67
2024-03-05T04:42:50.992Z,38.87
2024-03-05T04:45:53.561Z,34.20
2024-03-05T04:48:57.039Z,42.10
2024-03-05T04:51:59.509Z,41.45
2024-03-05T04:55:02.395Z,35.25
2024-03-05T04:58:06.354Z,38.30
2024-03-05T05:01:08.492Z,41.60
2024-03-05T05:04:10.578Z,41.58
2024-03-05T05:07:13.339Z,38.15
2024-03-05T05:10:16.005Z,40.88
2024-03-05T05:13:19.659Z,38.13
2024-03-05T05:16:21.857Z,36.57
2024-03-05T05:19:26.639Z,44.38
2024-03-05T05:22:28.931Z,42.28
2024-03-05T05:25:31.299Z,39.65
2024-03-05T05:28:33.702Z,39.47
2024-03-05T05:31:38.428Z,41.83
2024-03-05T05:34:40.660Z,36.20
2024-03-05T05:37:46.438Z,39.17
2024-03-05T05:40:49.321Z,37.97
2024-03-05T05:43:52.032Z,37.07
2024-03-05T05:46:54.831Z,43.03
2024-03-05T05:50:03.867Z,44.92
2024-03-05T05:53:17.052Z,38.42
2024-03-05T05:56:23.210Z,39.67
2024-03-05T05:59:26.180Z,42.90
2024-03-05T06:02:32.356Z,42.57
2024-03-05T06:05:40.526Z,37.88
2024-03-05T06:08:47.787Z,34.65
2024-03-05T06:11:50.611Z,37.10
2024-03-05T06:14:59.570Z,32.17
2024-03-05T06:18:04.782Z,37.40
2024-03-05T06:21:29.816Z,47.05
2024-03-05T06:24:32.984Z,42.03
2024-03-05T06:27:41.337Z,49.65
2024-03-05T06:30:48.713Z,50.13
2024-03-05T06:33:52.029Z,42.30
2024-03-05T06:36:58.109Z,39.35
2024-03-05T06:40:01.400Z,41.45
2024-03-05T06:43:07.009Z,38.88
2024-03-05T06:46:22.761Z,40.03
2024-03-05T06:49:42.074Z,36.27
2024-03-05T06:53:15.263Z,41.42
2024-03-05T06:56:50.251Z,38.50
2024-03-05T07:00:04.741Z,35.53
2024-03-05T07:03:11.892Z,37.73
2024-03-05T07:10:27.252Z,43.20
2024-03-05T07:13:42.268Z,41.22
2024-03-05T07:17:29.477Z,42.42
2024-03-05T07:24:50.971Z,43.63
2024-03-05T07:28:37.055Z,39.10
2024-03-05T07:39:52.270Z,38.23
2024-03-05T07:44:14.876Z,42.40
2024-03-05T07:47:46.221Z,45.50
2024-03-05T08:17:57.797Z,39.13
2024-03-05T08:25:46.961Z,46.30
2024-03-05T08:29:48.959Z,40.17
2024-03-05T08:37:28.014Z,43.88
2024-03-05T08:46:02.106Z,43.20
2024-03-05T09:18:08.860Z,31.05
2024-03-05T09:25:47.743Z,36.33
2024-03-05T11:45:51.860Z,16.98
2024-03-05T11:49:02.604Z,16.43
2024-03-05T11:52:09.552Z,12.50
2024-03-05T11:58:42.276Z,10.43
2024-03-05T12:01:48.404Z,10.40
2024-03-05T12:05:07.286Z,11.67
2024-03-05T12:08:35.737Z,15.83
2024-03-05T12:18:01.965Z,10.30
2024-03-05T12:25:00.416Z,11.67
2024-03-05T12:28:05.713Z,10.43
2024-03-05T12:31:25.209Z,10.25
2024-03-05T12:34:40.038Z,8.07
2024-03-05T12:37:58.582Z,7.65
2024-03-05T12:41:07.944Z,10.50
2024-03-05T12:44:33.247Z,12.83
2024-03-05T12:48:03.318Z,11.35
2024-03-05T12:55:47.557Z,11.30
2024-03-05T13:08:47.551Z,13.85
2024-03-05T13:12:20.266Z,16.40
2024-03-05T13:31:21.413Z,17.90
2024-03-05T13:34:37.082Z,21.20
2024-03-05T13:37:59.077Z,16.47
2024-03-05T13:41:10.651Z,20.53
2024-03-05T13:44:16.800Z,18.65
2024-03-05T13:47:40.233Z,24.48
2024-03-05T13:50:57.628Z,21.77
2024-03-05T13:54:06.349Z,22.83
2024-03-05T13:57:09.636Z,24.10
2024-03-05T14:00:22.579Z,25.25
2024-03-05T14:03:33.897Z,21.77
2024-03-05T14:11:46.746Z,20.97
2024-03-05T14:18:51.711Z,21.88
2024-03-05T14:22:05.373Z,21.92
2024-03-05T14:25:18.892Z,19.83
2024-03-05T14:28:28.350Z,23.20
2024-03-05T14:31:33.202Z,24.10
2024-03-05T14:34:41.188Z,22.27
2024-03-05T14:37:45.008Z,26.00
2024-03-05T14:40:47.823Z,25.90
2024-03-05T14:43:54.043Z,27.03
2024-03-05T14:46:56.889Z,22.47
2024-03-05T14:49:59.977Z,26.15
2024-03-05T14:53:03.973Z,27.00
2024-03-05T14:56:07.628Z,21.60
2024-03-05T14:59:10.591Z,25.13
2024-03-05T15:02:13.627Z,26.07
2024-03-05T15:05:27.070Z,22.02
2024-03-05T15:08:32.782Z,25.92
2024-03-05T15:11:36.883Z,26.20
2024-03-05T15:14:43.324Z,24.57
2024-03-05T15:17:52.575Z,22.80
2024-03-05T15:20:55.962Z,29.83
2024-03-05T15:23:59.235Z,27.40
2024-03-05T15:27:05.761Z,26.73
2024-03-05T15:30:15.095Z,24.07
2024-03-05T15:33:18.157Z,25.43
2024-03-05T15:36:21.066Z,27.35
2024-03-05T15:39:34.705Z,31.77
2024-03-05T15:42:37.172Z,26.08
2024-03-05T15:45:42.755Z,24.47
2024-03-05T15:48:45.616Z,28.43
2024-03-05T15:51:48.537Z,24.50
2024-03-05T15:54:54.878Z,25.33
2024-03-05T15:58:04.999Z,24.45
2024-03-05T16:01:15.655Z,25.33
2024-03-05T16:04:48.626Z,25.60
2024-03-05T16:07:51.894Z,31.20
2024-03-05T16:10:55.518Z,28.00
2024-03-05T16:14:01.607Z,30.23
2024-03-05T16:17:05.014Z,30.70
2024-03-05T16:20:08.678Z,33.63
2024-03-05T16:23:12.255Z,29.30
2024-03-05T16:26:17.457Z,27.92
2024-03-05T16:29:23.949Z,25.73
2024-03-05T16:32:26.650Z,25.87
2024-03-05T16:35:40.991Z,26.20
2024-03-05T16:38:43.647Z,28.65
2024-03-05T16:41:46.517Z,32.55
2024-03-05T16:44:49.186Z,29.15
2024-03-05T16:47:55.390Z,27.80
2024-03-05T16:50:58.458Z,25.73
2024-03-05T16:54:02.987Z,26.85
2024-03-05T16:57:07.995Z,25.70
2024-03-05T17:00:19.194Z,27.60
2024-03-05T17:03:30.000Z,31.03
2024-03-05T17:06:34.961Z,25.37
2024-03-05T17:09:38.858Z,27.33
2024-03-05T17:12:46.386Z,33.80
2024-03-05T17:16:01.640Z,28.92
2024-03-05T17:19:06.831Z,24.90
2024-03-05T17:22:12.546Z,30.93
2024-03-05T17:25:19.125Z,26.80
2024-03-05T17:28:21.272Z,29.65
2024-03-05T17:31:23.306Z,30.08
2024-03-05T17:34:26.186Z,27.00
2024-03-05T17:37:31.009Z,29.33
2024-03-05T17:40:34.863Z,32.13
2024-03-05T17:43:38.500Z,31.65
2024-03-05T17:46:46.124Z,31.50
2024-03-05T17:49:54.493Z,32.00
2024-03-05T17:52:59.579Z,28.90
2024-03-05T17:56:06.650Z,33.83
2024-03-05T17:59:11.623Z,33.03
2024-03-05T18:02:16.707Z,33.05
2024-03-05T18:05:20.934Z,32.37
2024-03-05T18:08:26.684Z,31.30
2024-03-05T18:11:29.682Z,33.38
2024-03-05T18:14:33.586Z,33.50
2024-03-05T18:17:47.614Z,32.47
2024-03-05T18:20:51.195Z,31.20
2024-03-05T18:23:56.058Z,35.07
2024-03-05T18:27:01.280Z,36.20
2024-03-05T18:30:06.145Z,32.30
2024-03-05T18:33:09.810Z,31.58
2024-03-05T18:36:13.012Z,31.30
2024-03-05T18:39:15.497Z,37.73
2024-03-05T18:42:18.720Z,31.92
2024-03-05T18:45:24.366Z,31.85
2024-03-05T18:48:30.869Z,34.38
2024-03-05T18:51:34.086Z,31.57
2024-03-05T18:54:36.614Z,32.20
2024-03-05T18:57:39.109Z,37.97
2024-03-05T19:00:46.395Z,31.02
2024-03-05T19:03:51.450Z,36.35
2024-03-05T19:06:56.155Z,32.27
2024-03-05T19:10:00.419Z,33.50
2024-03-05T19:13:07.012Z,31.83
2024-03-05T19:16:09.592Z,30.52
2024-03-05T19:19:14.611Z,27.40
2024-03-05T19:22:16.846Z,31.23
2024-03-05T19:25:24.491Z,30.33
2024-03-05T19:28:34.791Z,35.13
2024-03-05T19:31:43.792Z,33.67
2024-03-05T19:34:51.879Z,28.45
2024-03-05T19:37:57.428Z,31.73
2024-03-05T19:41:00.702Z,31.50
2024-03-05T19:44:04.737Z,32.15
2024-03-05T19:47:07.493Z,31.88
2024-03-05T19:50:14.782Z,29.20
2024-03-05T19:53:18.506Z,29.40
2024-03-05T19:56:21.916Z,26.90
2024-03-05T19:59:24.375Z,29.65
2024-03-05T20:02:28.308Z,31.20
2024-03-05T20:05:31.951Z,29.10
2024-03-05T20:08:34.603Z,26.97
2024-03-05T20:11:39.181Z,27.23
2024-03-05T20:14:41.792Z,22.63
2024-03-05T20:17:47.366Z,28.85
2024-03-05T20:20:50.133Z,28.23
2024-03-05T20:23:52.899Z,28.03
2024-03-05T20:26:56.925Z,25.47
2024-03-05T20:30:13.779Z,31.67
2024-03-05T20:33:16.702Z,31.90
2024-03-05T20:36:23.912Z,33.47
2024-03-05T20:39:27.939Z,30.27
2024-03-05T20:42:31.612Z,26.50
2024-03-05T20:45:35.936Z,28.65
2024-03-05T20:48:38.697Z,33.72
2024-03-05T20:51:41.666Z,27.90
2024-03-05T20:54:47.862Z,28.27
2024-03-05T20:57:53.876Z,29.20
2024-03-05T21:00:57.135Z,28.58
2024-03-05T21:04:01.660Z,28.42
2024-03-05T21:07:08.454Z,29.52
2024-03-05T21:10:11.952Z,31.37
2024-03-05T21:13:15.729Z,27.70
2024-03-05T21:16:22.218Z,29.85
2024-03-05T21:19:27.781Z,27.95
2024-03-05T21:22:30.249Z,32.95
2024-03-05T21:25:40.017Z,34.77
2024-03-05T21:28:51.981Z,30.67
2024-03-05T21:31:54.270Z,29.65
2024-03-05T21:34:56.430Z,27.48
2024-03-05T21:37:58.991Z,31.35
2024-03-05T21:41:01.220Z,26.90
2024-03-05T21:44:03.859Z,27.40
2024-03-05T21:47:06.189Z,28.50
2024-03-05T21:50:12.671Z,29.95
2024-03-05T21:53:14.735Z,28.77
2024-03-05T21:56:16.777Z,30.80
2024-03-05T21:59:19.019Z,29.23
2024-03-05T22:02:21.453Z,27.83
2024-03-05T22:05:23.616Z,29.65
2024-03-05T22:08:25.833Z,28.95
2024-03-05T22:11:28.880Z,28.63
2024-03-05T22:14:31.057Z,28.90
2024-03-05T22:17:33.263Z,31.80
2024-03-05T22:20:35.325Z,31.98
2024-03-05T22:23:37.414Z,31.85
2024-03-05T22:26:39.594Z,26.13
2024-03-05T22:29:41.657Z,31.47
2024-03-05T22:32:44.509Z,27.77
2024-03-05T22:35:49.785Z,31.00
2024-03-05T22:38:52.452Z,25.77
2024-03-05T22:41:54.443Z,27.10
2024-03-05T22:44:56.599Z,24.17
2024-03-05T22:47:58.640Z,29.48
2024-03-05T22:51:01.206Z,28.55
2024-03-05T22:54:03.977Z,30.10
2024-03-05T22:57:06.195Z,29.23
2024-03-05T23:00:29.377Z,34.33
2024-03-05T23:03:36.509Z,33.65
2024-03-05T23:06:39.980Z,32.15
2024-03-05T23:09:42.784Z,31.60
2024-03-05T23:12:49.820Z,30.23
2024-03-05T23:15:52.065Z,29.10
2024-03-05T23:18:54.577Z,28.55
2024-03-05T23:21:57.820Z,32.80
2024-03-05T23:25:00.234Z,30.52
2024-03-05T23:28:04.411Z,31.67
2024-03-05T23:31:08.126Z,33.33
2024-03-05T23:34:12.297Z,29.42
2024-03-05T23:37:14.559Z,30.65
2024-03-05T23:40:17.101Z,30.77
2024-03-05T23:43:19.077Z,32.27
2024-03-05T23:46:26.247Z,31.70
2024-03-05T23:49:28.515Z,35.83
2024-03-05T23:52:34.029Z,32.15
2024-03-05T23:55:36.445Z,31.33
2024-03-05T23:58:41.435Z,29.63
